createdAt,value
2019-05-06T00:01:40.619Z,1.57
2019-05-06T00:04:10.892Z,1.57
2019-05-06T00:06:41.169Z,1.50
2019-05-06T00:09:11.979Z,1.42
2019-05-06T00:11:42.224Z,1.38
2019-05-06T00:14:14.145Z,1.34
2019-05-06T00:16:44.454Z,1.38
2019-05-06T00:19:14.771Z,1.29
2019-05-06T00:21:44.992Z,1.27
2019-05-06T00:24:15.320Z,1.27
2019-05-06T00:27:04.942Z,1.27
2019-05-06T00:29:35.254Z,1.26
2019-05-06T00:32:05.902Z,1.18
2019-05-06T00:34:37.548Z,1.16
2019-05-06T00:37:07.796Z,1.17
2019-05-06T00:39:45.412Z,1.18
2019-05-06T00:42:40.288Z,1.17
2019-05-06T00:45:11.100Z,1.17
2019-05-06T00:47:41.358Z,1.09
2019-05-06T00:50:14.224Z,1.05
2019-05-06T00:52:44.705Z,0.96
2019-05-06T00:55:15.144Z,0.92
2019-05-06T00:57:45.835Z,0.91
2019-05-06T01:00:18.929Z,0.89
2019-05-06T01:02:49.240Z,0.86
2019-05-06T01:05:19.818Z,0.84
2019-05-06T01:07:50.373Z,0.79
2019-05-06T01:10:20.784Z,0.84
2019-05-06T01:13:04.202Z,0.82
2019-05-06T01:15:35.656Z,0.82
2019-05-06T01:18:06.352Z,0.87
2019-05-06T01:20:36.977Z,0.87
2019-05-06T01:23:07.205Z,0.85
2019-05-06T01:25:37.804Z,0.80
2019-05-06T01:28:08.049Z,0.75
2019-05-06T01:30:38.527Z,0.69
2019-05-06T01:33:08.812Z,0.69
2019-05-06T01:35:39.091Z,0.63
2019-05-06T01:38:35.364Z,0.63
2019-05-06T01:41:24.373Z,0.64
2019-05-06T01:43:57.492Z,0.58
2019-05-06T01:46:27.892Z,0.55
2019-05-06T01:48:58.168Z,0.58
2019-05-06T01:51:34.588Z,0.60
2019-05-06T01:54:04.139Z,0.56
2019-05-06T01:56:40.344Z,0.54
2019-05-06T01:59:18.603Z,0.56
2019-05-06T02:01:58.112Z,0.55
2019-05-06T02:04:20.788Z,0.52
2019-05-06T02:06:51.097Z,0.52
2019-05-06T02:09:21.344Z,0.46
2019-05-06T02:11:53.511Z,0.48
2019-05-06T02:14:24.623Z,0.48
2019-05-06T02:19:37.000Z,0.52
2019-05-06T02:22:13.623Z,0.55
2019-05-06T02:24:53.773Z,0.59
2019-05-06T02:27:24.744Z,0.63
2019-05-06T02:30:05.665Z,0.63
2019-05-06T02:32:55.696Z,0.62
2019-05-06T02:35:34.974Z,0.56
2019-05-06T02:38:07.072Z,0.54
2019-05-06T02:40:37.333Z,0.59
2019-05-06T02:43:07.616Z,0.63
2019-05-06T02:45:37.902Z,0.59
2019-05-06T02:48:14.293Z,0.63
2019-05-06T02:51:15.526Z,0.68
2019-05-06T02:53:45.842Z,0.69
2019-05-06T02:56:16.051Z,0.65
2019-05-06T02:58:46.338Z,0.66
2019-05-06T03:01:17.514Z,0.64
2019-05-06T03:03:47.789Z,0.59
2019-05-06T03:06:18.067Z,0.56
2019-05-06T03:08:48.341Z,0.61
2019-05-06T03:11:18.617Z,0.64
2019-05-06T03:13:48.884Z,0.70
2019-05-06T03:16:19.062Z,0.78
2019-05-06T03:18:49.273Z,0.79
2019-05-06T03:21:50.688Z,0.78
2019-05-06T03:24:48.745Z,0.84
2019-05-06T03:27:18.952Z,0.88
2019-05-06T03:29:49.176Z,0.88
2019-05-06T03:32:24.753Z,0.89
2019-05-06T03:35:15.935Z,0.83
2019-05-06T03:37:24.353Z,0.81
2019-05-06T03:39:55.600Z,0.83
2019-05-06T03:42:26.240Z,0.78
2019-05-06T03:45:03.953Z,0.82
2019-05-06T03:47:44.899Z,0.84
2019-05-06T03:50:15.133Z,0.81
2019-05-06T03:52:45.773Z,0.79
2019-05-06T03:55:15.997Z,0.78
2019-05-06T03:57:47.676Z,0.75
2019-05-06T04:00:18.634Z,0.75
2019-05-06T04:02:48.903Z,0.76
2019-05-06T04:05:19.115Z,0.72
2019-05-06T04:07:52.762Z,0.72
2019-05-06T04:10:22.880Z,0.71
2019-05-06T04:12:54.382Z,0.74
2019-05-06T04:15:27.381Z,0.70
2019-05-06T04:18:03.642Z,0.74
2019-05-06T04:20:46.865Z,0.81
2019-05-06T04:23:43.707Z,0.90
2019-05-06T04:26:23.960Z,0.97
2019-05-06T04:28:55.351Z,1.03
2019-05-06T04:31:26.570Z,1.09
2019-05-06T04:34:12.363Z,1.16
2019-05-06T04:36:29.702Z,1.21
2019-05-06T04:39:04.255Z,1.28
2019-05-06T04:41:34.550Z,1.34
2019-05-06T04:44:05.306Z,1.41
2019-05-06T04:46:35.682Z,1.49
2019-05-06T04:49:10.343Z,1.60
2019-05-06T04:51:37.868Z,1.72
2019-05-06T04:54:08.102Z,1.83
2019-05-06T04:56:38.314Z,1.93
2019-05-06T04:59:08.728Z,2.00
2019-05-06T05:01:39.167Z,2.08
2019-05-06T05:04:24.430Z,2.15
2019-05-06T05:06:43.216Z,2.22
2019-05-06T05:09:17.066Z,2.37
2019-05-06T05:11:53.496Z,2.49
2019-05-06T05:14:48.875Z,2.60
2019-05-06T05:17:56.862Z,2.74
2019-05-06T05:20:36.993Z,2.89
2019-05-06T05:22:58.998Z,3.10
2019-05-06T05:25:29.456Z,3.29
2019-05-06T05:28:02.050Z,3.44
2019-05-06T05:30:32.813Z,3.60
2019-05-06T05:33:03.924Z,3.72
2019-05-06T05:35:34.212Z,3.78
2019-05-06T05:38:04.682Z,3.84
2019-05-06T05:40:35.349Z,3.97
2019-05-06T05:43:32.859Z,4.06
2019-05-06T05:46:03.798Z,4.16
2019-05-06T05:48:59.725Z,4.23
2019-05-06T05:51:32.016Z,4.22
2019-05-06T05:54:02.387Z,4.32
2019-05-06T05:56:33.101Z,4.46
2019-05-06T05:59:03.648Z,4.51
2019-05-06T06:01:35.452Z,4.53
2019-05-06T19:24:25.526Z,9.29
2019-05-06T19:27:02.175Z,9.19
2019-05-06T19:29:33.373Z,9.13
2019-05-06T19:32:03.693Z,9.12
2019-05-06T19:34:35.330Z,9.09
2019-05-06T19:37:05.599Z,9.08
2019-05-06T19:39:35.887Z,9.08
2019-05-06T19:42:07.041Z,9.05
2019-05-06T19:44:37.313Z,9.04
2019-05-06T19:47:07.609Z,9.04
2019-05-06T19:49:37.902Z,8.96
2019-05-06T19:52:08.464Z,8.91
2019-05-06T19:54:38.742Z,8.88
2019-05-06T19:57:09.014Z,8.85
2019-05-06T19:59:39.548Z,8.82
2019-05-06T20:02:09.854Z,8.81
2019-05-06T20:04:44.013Z,8.72
2019-05-06T20:07:35.533Z,8.70
2019-05-06T20:10:26.013Z,8.70
2019-05-06T20:13:02.617Z,8.69
2019-05-06T20:15:34.858Z,8.69
2019-05-06T20:18:06.296Z,8.70
2019-05-06T20:20:36.697Z,8.71
2019-05-06T20:23:07.264Z,8.72
2019-05-06T20:25:37.532Z,8.69
2019-05-06T20:28:07.788Z,8.69
2019-05-06T20:30:37.997Z,8.74
2019-05-06T20:33:08.635Z,8.68
2019-05-06T20:35:39.218Z,8.60
2019-05-06T20:38:12.151Z,8.50
2019-05-06T20:40:43.083Z,8.38
2019-05-06T20:43:20.459Z,8.23
2019-05-06T20:45:47.272Z,8.08
2019-05-06T20:48:17.927Z,7.92
2019-05-06T20:50:48.536Z,7.84
2019-05-06T20:53:18.869Z,7.79
2019-05-06T20:55:49.058Z,7.69
2019-05-06T20:58:19.333Z,7.63
2019-05-06T21:00:49.578Z,7.57
2019-05-06T21:03:21.956Z,7.51
2019-05-06T21:05:52.393Z,7.35
2019-05-06T21:08:22.654Z,7.35
2019-05-06T21:10:53.082Z,7.23
2019-05-06T21:13:31.924Z,7.15
2019-05-06T21:15:56.601Z,7.08
2019-05-06T21:18:26.791Z,7.00
2019-05-06T21:20:57.059Z,7.01
2019-05-06T21:23:27.325Z,6.97
2019-05-06T21:25:57.546Z,6.90
2019-05-06T21:28:27.901Z,6.81
2019-05-06T21:30:58.447Z,6.77
2019-05-06T21:33:28.701Z,6.72
2019-05-06T21:35:58.996Z,6.65
2019-05-06T21:38:29.622Z,6.54
2019-05-06T21:41:01.869Z,6.47
2019-05-06T21:43:43.722Z,6.42
2019-05-06T21:46:03.864Z,6.42
2019-05-06T21:48:34.161Z,6.40
2019-05-06T21:51:04.446Z,6.41
2019-05-06T21:53:34.764Z,6.34
2019-05-06T21:56:05.035Z,6.27
2019-05-06T21:58:35.234Z,6.12
2019-05-06T22:01:07.688Z,5.96
2019-05-06T22:03:39.114Z,5.84
2019-05-06T22:06:09.453Z,5.78
2019-05-06T22:08:39.730Z,5.71
2019-05-06T22:11:10.070Z,5.65
2019-05-06T22:13:42.389Z,5.69
2019-05-06T22:16:12.651Z,5.66
2019-05-06T22:18:45.465Z,5.58
2019-05-06T22:21:23.678Z,5.53
2019-05-06T22:24:12.125Z,5.44
2019-05-06T22:26:43.120Z,5.33
2019-05-06T22:29:13.611Z,5.37
2019-05-06T22:31:43.869Z,5.35
2019-05-06T22:34:15.810Z,5.24
2019-05-06T22:36:47.753Z,5.21
2019-05-06T22:39:18.094Z,5.14
2019-05-06T22:41:48.389Z,5.07
2019-05-06T22:44:19.027Z,5.01
2019-05-06T22:46:49.269Z,4.87
2019-05-06T22:49:19.546Z,4.78
2019-05-06T22:51:52.195Z,4.72
2019-05-06T22:54:24.539Z,4.64
2019-05-06T22:56:54.985Z,4.57
2019-05-06T22:59:25.318Z,4.57
2019-05-06T23:02:06.149Z,4.53
2019-05-06T23:04:37.043Z,4.46
2019-05-06T23:07:07.274Z,4.36
2019-05-06T23:09:37.452Z,4.32
2019-05-06T23:12:08.084Z,4.29
2019-05-06T23:14:38.599Z,4.22
2019-05-06T23:17:08.986Z,4.18
2019-05-06T23:19:39.190Z,4.12
2019-05-06T23:22:11.985Z,4.12
2019-05-06T23:24:41.802Z,4.02
2019-05-06T23:27:12.654Z,3.97
2019-05-06T23:29:45.057Z,3.94
2019-05-06T23:32:15.322Z,3.85
2019-05-06T23:34:45.600Z,3.85
2019-05-06T23:37:23.634Z,3.79
2019-05-06T23:40:42.830Z,3.75
2019-05-06T23:43:49.187Z,3.67
2019-05-06T23:46:55.514Z,3.54
2019-05-06T23:50:03.406Z,3.44
2019-05-06T23:53:12.323Z,3.41
2019-05-06T23:56:19.715Z,3.32
2019-05-06T23:58:52.251Z,3.27
